This is the latest recevied weather packets stored in our database for station/object K2ATL. If no packets are shown the sender has not sent any weather packets the latest 10 day(s).
| Time | Temp. | Humidity | Pressure | Rain* | Wind** | Luminosity | Snow |
|---|---|---|---|---|---|---|---|
| 1787857003 | 25° C | 82% | 1101.5 hPa | 0 mm | - | 138 W/m² | - |
| 1787856703 | 25.56° C | 83% | 1101.8 hPa | 0 mm | - | 144 W/m² | - |
| 1787856397 | 26.67° C | 81% | 1101.7 hPa | 0 mm | - | 186 W/m² | - |
| 1787856092 | 24.44° C | 85% | 1101.8 hPa | 0 mm | - | 900 W/m² | - |
| 1787855787 | 22.78° C | 86% | 1101.7 hPa | 0 mm | - | 920 W/m² | - |
| 1787855483 | 26.11° C | 84% | 1101.7 hPa | 0 mm | - | 111 W/m² | - |
| 1787855178 | 27.22° C | 79% | 1101.8 hPa | 0 mm | - | 167 W/m² | - |
| 1787854873 | 26.67° C | 86% | 1101.9 hPa | 0 mm | - | 972 W/m² | - |
| 1787854572 | 26.11° C | 84% | 1101.9 hPa | 0 mm | - | 973 W/m² | - |
| 1787854267 | 23.33° C | 80% | 1102 hPa | 0 mm | - | 941 W/m² | - |
| 1787853962 | 25.56° C | 81% | 1101.9 hPa | 0 mm | - | 202 W/m² | - |
| 1787853656 | 25° C | 79% | 1102.1 hPa | 0 mm | - | 854 W/m² | - |
| 1787853355 | 24.44° C | 79% | 1102.2 hPa | 0 mm | - | 953 W/m² | - |
| 1787853050 | 23.33° C | 84% | 1102.1 hPa | 0 mm | - | 702 W/m² | - |
| 1787852751 | 25° C | 86% | 1102.2 hPa | 0 mm | - | 181 W/m² | - |
| 1787852449 | 25° C | 83% | 1102.1 hPa | 0 mm | - | 190 W/m² | - |
| 1787852149 | 25° C | 83% | 1102.2 hPa | 0 mm | - | 186 W/m² | - |
| 1787851844 | 26.67° C | 82% | 1102.3 hPa | 0 mm | - | 202 W/m² | - |
| 1787851544 | 25.56° C | 79% | 1102.3 hPa | 0 mm | - | 895 W/m² | - |
| 1787851244 | 25° C | 82% | 1102.6 hPa | 0 mm | - | 923 W/m² | - |
| 1787850940 | 25° C | 83% | 1102.6 hPa | 0 mm | - | 889 W/m² | - |
| 1787850636 | 23.89° C | 87% | 1102.6 hPa | 0 mm | - | 832 W/m² | - |
| 1787850331 | 23.89° C | 83% | 1102.6 hPa | 0 mm | - | 501 W/m² | - |
| 1787850027 | 24.44° C | 83% | 1102.7 hPa | 0 mm | - | 399 W/m² | - |
| 1787849726 | 23.33° C | 87% | 1102.8 hPa | 0 mm | - | 700 W/m² | - |
* Rain latest hour (hover to see other rain measurements)
** Current wind speed in m/s (hover to see current wind gust speed)